Terminal Aerodrome Forecast
Issued by NWS Cleveland, OH

Home | Current Version | Previous Version | Graphics & Text | Print | Product List | Glossary On
Versions: 1 2 3 4 5 6 7 8 9 10 11 12 13 14 15 16 17 18 19 20 21 22 23 24 25 26 27
085
FTUS41 KCLE 141504 AAC
TAFCLE
TAF AMD
KCLE 141504Z 1415/1518 32012KT P6SM VCSH SCT015 OVC025
      TEMPO 1415/1417 3SM -SHSN OVC015
     FM141700 32008KT P6SM SCT015 BKN025
     FM142300 28008KT P6SM SCT025 BKN035
     FM150600 22008KT P6SM BKN050=

USA.gov is the U.S. government's official web portal to all federal, state and local government web resources and services.